Pagrindinis puslapis
METAR-TAF:

METAR-TAF

Oro uostai :

Deering, Aliaska, Jungtinės Amerikos Valstijos

platuma: 66-05N, ilguma: 162-45W, Aukštis: 5 m

Dabartinis oras

Ataskaita buvo paskelbta 26 minutes, ne 03:53 UTC
Vėjas 9 kt iš Vakarų/Šiaurės Vakarų
Temperatūra 12°C
Drėgmė 88%
Slėgis 1003 hPa
Matomumas: 16.1 km
Giedras dangus

METAR: PADE 160353Z AUTO 30009KT 10SM CLR 12/10 A2963 RMK AO2 SLP035 T01220100 TSNO $

Laikas: 20:19 (04:19 UTC)


TAF: trūkstamas

Orai ataskaitas ir orų prognozės (METAR, TAF).

turimą stotys yra geltonos ir raudonos taškus žemėlapyje.

Perkelti pele per norėdami pamatyti stoties vardą.

Tada spustelėkite, norėdami matyti oro stebėjimo ir prognozės.

Norėdami pakeisti žemėlapį: spustelėkite ant žalios mygtukų su juodo kryžiaus žemyn,; žalią mygtuką su brūkšneliu, jei norite nutolinti; arba žalių rodyklių gretimoms žemėlapius.


METAR-TAF: